sensor_id;sensor_type;location;lat;lon;timestamp;P1;durP1;ratioP1;P2;durP2;ratioP2
32633;SDS011;19043;51.012;5.648;2022-07-23T00:01:21;14.90;;;12.10;;
32633;SDS011;19043;51.012;5.648;2022-07-23T00:03:46;17.83;;;10.95;;
32633;SDS011;19043;51.012;5.648;2022-07-23T00:06:12;13.18;;;11.30;;
32633;SDS011;19043;51.012;5.648;2022-07-23T00:08:37;12.50;;;11.23;;
32633;SDS011;19043;51.012;5.648;2022-07-23T00:11:03;10.98;;;9.98;;
32633;SDS011;19043;51.012;5.648;2022-07-23T00:13:28;13.27;;;11.52;;
32633;SDS011;19043;51.012;5.648;2022-07-23T00:15:54;15.50;;;11.73;;
32633;SDS011;19043;51.012;5.648;2022-07-23T00:18:20;18.83;;;11.65;;
32633;SDS011;19043;51.012;5.648;2022-07-23T00:20:45;19.35;;;13.05;;
32633;SDS011;19043;51.012;5.648;2022-07-23T00:23:11;22.20;;;13.45;;
32633;SDS011;19043;51.012;5.648;2022-07-23T00:25:36;18.38;;;14.45;;
32633;SDS011;19043;51.012;5.648;2022-07-23T00:28:02;20.60;;;14.40;;
32633;SDS011;19043;51.012;5.648;2022-07-23T00:30:28;20.92;;;14.77;;
32633;SDS011;19043;51.012;5.648;2022-07-23T00:33:02;18.88;;;12.95;;
32633;SDS011;19043;51.012;5.648;2022-07-23T00:35:30;14.48;;;12.77;;
32633;SDS011;19043;51.012;5.648;2022-07-23T00:37:57;21.80;;;15.18;;
32633;SDS011;19043;51.012;5.648;2022-07-23T00:40:23;20.38;;;15.82;;
32633;SDS011;19043;51.012;5.648;2022-07-23T00:42:49;20.95;;;14.25;;
32633;SDS011;19043;51.012;5.648;2022-07-23T00:45:15;16.80;;;14.43;;
32633;SDS011;19043;51.012;5.648;2022-07-23T00:47:40;16.45;;;14.23;;
32633;SDS011;19043;51.012;5.648;2022-07-23T00:50:06;19.38;;;14.63;;
32633;SDS011;19043;51.012;5.648;2022-07-23T00:52:33;21.70;;;14.27;;
32633;SDS011;19043;51.012;5.648;2022-07-23T00:54:59;20.50;;;14.10;;
32633;SDS011;19043;51.012;5.648;2022-07-23T00:57:25;22.48;;;14.52;;
32633;SDS011;19043;51.012;5.648;2022-07-23T00:59:50;18.00;;;13.32;;
32633;SDS011;19043;51.012;5.648;2022-07-23T01:02:16;17.85;;;15.38;;
32633;SDS011;19043;51.012;5.648;2022-07-23T01:04:41;20.10;;;13.88;;
32633;SDS011;19043;51.012;5.648;2022-07-23T01:07:07;20.33;;;14.40;;
32633;SDS011;19043;51.012;5.648;2022-07-23T01:09:32;15.48;;;13.88;;
32633;SDS011;19043;51.012;5.648;2022-07-23T01:11:57;16.70;;;13.02;;
32633;SDS011;19043;51.012;5.648;2022-07-23T01:14:24;15.02;;;12.43;;
32633;SDS011;19043;51.012;5.648;2022-07-23T01:16:49;14.77;;;13.13;;
32633;SDS011;19043;51.012;5.648;2022-07-23T01:19:15;18.52;;;13.77;;
32633;SDS011;19043;51.012;5.648;2022-07-23T01:21:46;15.75;;;13.07;;
32633;SDS011;19043;51.012;5.648;2022-07-23T01:24:13;17.30;;;12.13;;
32633;SDS011;19043;51.012;5.648;2022-07-23T01:26:39;16.95;;;13.15;;
32633;SDS011;19043;51.012;5.648;2022-07-23T01:29:07;15.13;;;12.70;;
32633;SDS011;19043;51.012;5.648;2022-07-23T01:31:33;14.18;;;12.13;;
32633;SDS011;19043;51.012;5.648;2022-07-23T01:33:58;15.82;;;11.48;;
32633;SDS011;19043;51.012;5.648;2022-07-23T01:36:24;13.88;;;11.60;;
32633;SDS011;19043;51.012;5.648;2022-07-23T01:38:49;15.05;;;12.27;;
32633;SDS011;19043;51.012;5.648;2022-07-23T01:41:16;15.77;;;12.50;;
32633;SDS011;19043;51.012;5.648;2022-07-23T01:43:41;14.88;;;11.52;;
32633;SDS011;19043;51.012;5.648;2022-07-23T01:46:07;13.27;;;11.80;;
32633;SDS011;19043;51.012;5.648;2022-07-23T01:48:32;18.33;;;13.20;;
32633;SDS011;19043;51.012;5.648;2022-07-23T01:50:58;19.67;;;13.20;;
32633;SDS011;19043;51.012;5.648;2022-07-23T01:53:23;18.30;;;12.75;;
32633;SDS011;19043;51.012;5.648;2022-07-23T01:55:49;18.15;;;11.32;;
32633;SDS011;19043;51.012;5.648;2022-07-23T01:58:14;19.13;;;12.32;;
32633;SDS011;19043;51.012;5.648;2022-07-23T02:00:40;15.27;;;12.13;;
32633;SDS011;19043;51.012;5.648;2022-07-23T02:03:05;17.52;;;12.00;;
32633;SDS011;19043;51.012;5.648;2022-07-23T02:05:31;17.33;;;12.10;;
32633;SDS011;19043;51.012;5.648;2022-07-23T02:07:59;17.10;;;11.40;;
32633;SDS011;19043;51.012;5.648;2022-07-23T02:10:25;22.33;;;12.45;;
32633;SDS011;19043;51.012;5.648;2022-07-23T02:12:52;17.25;;;12.48;;
32633;SDS011;19043;51.012;5.648;2022-07-23T02:15:17;14.50;;;11.30;;
32633;SDS011;19043;51.012;5.648;2022-07-23T02:17:42;22.08;;;13.32;;
32633;SDS011;19043;51.012;5.648;2022-07-23T02:20:09;14.93;;;11.82;;
32633;SDS011;19043;51.012;5.648;2022-07-23T02:22:35;16.98;;;12.82;;
32633;SDS011;19043;51.012;5.648;2022-07-23T02:25:01;36.15;;;12.82;;
32633;SDS011;19043;51.012;5.648;2022-07-23T02:27:26;17.73;;;12.25;;
32633;SDS011;19043;51.012;5.648;2022-07-23T02:29:53;14.68;;;12.43;;
32633;SDS011;19043;51.012;5.648;2022-07-23T02:32:18;15.48;;;11.88;;
32633;SDS011;19043;51.012;5.648;2022-07-23T02:34:44;17.17;;;11.75;;
32633;SDS011;19043;51.012;5.648;2022-07-23T02:37:09;14.93;;;12.48;;
32633;SDS011;19043;51.012;5.648;2022-07-23T02:39:35;19.77;;;12.70;;
32633;SDS011;19043;51.012;5.648;2022-07-23T02:42:01;25.10;;;12.65;;
32633;SDS011;19043;51.012;5.648;2022-07-23T02:44:27;18.60;;;13.57;;
32633;SDS011;19043;51.012;5.648;2022-07-23T02:46:52;18.23;;;12.98;;
32633;SDS011;19043;51.012;5.648;2022-07-23T02:49:17;13.57;;;12.18;;
32633;SDS011;19043;51.012;5.648;2022-07-23T02:51:43;15.00;;;11.75;;
32633;SDS011;19043;51.012;5.648;2022-07-23T02:54:08;19.05;;;12.52;;
32633;SDS011;19043;51.012;5.648;2022-07-23T02:56:34;15.85;;;12.25;;
32633;SDS011;19043;51.012;5.648;2022-07-23T02:58:59;14.30;;;12.10;;
32633;SDS011;19043;51.012;5.648;2022-07-23T03:01:24;19.58;;;13.63;;
32633;SDS011;19043;51.012;5.648;2022-07-23T03:03:50;15.55;;;13.35;;
32633;SDS011;19043;51.012;5.648;2022-07-23T03:06:16;17.35;;;11.52;;
32633;SDS011;19043;51.012;5.648;2022-07-23T03:08:41;14.48;;;12.98;;
32633;SDS011;19043;51.012;5.648;2022-07-23T03:11:06;16.77;;;12.95;;
32633;SDS011;19043;51.012;5.648;2022-07-23T03:13:39;17.92;;;13.02;;
32633;SDS011;19043;51.012;5.648;2022-07-23T03:16:05;16.15;;;13.15;;
32633;SDS011;19043;51.012;5.648;2022-07-23T03:18:30;13.88;;;11.82;;
32633;SDS011;19043;51.012;5.648;2022-07-23T03:20:56;12.88;;;10.35;;
32633;SDS011;19043;51.012;5.648;2022-07-23T03:23:21;13.07;;;10.75;;
32633;SDS011;19043;51.012;5.648;2022-07-23T03:25:47;14.02;;;10.82;;
32633;SDS011;19043;51.012;5.648;2022-07-23T03:28:15;14.05;;;11.90;;
32633;SDS011;19043;51.012;5.648;2022-07-23T03:30:42;19.48;;;12.13;;
32633;SDS011;19043;51.012;5.648;2022-07-23T03:33:07;67.32;;;50.97;;
32633;SDS011;19043;51.012;5.648;2022-07-23T03:35:33;68.03;;;52.47;;
32633;SDS011;19043;51.012;5.648;2022-07-23T03:37:58;61.13;;;48.22;;
32633;SDS011;19043;51.012;5.648;2022-07-23T03:40:24;37.25;;;32.15;;
32633;SDS011;19043;51.012;5.648;2022-07-23T03:42:49;39.70;;;27.85;;
32633;SDS011;19043;51.012;5.648;2022-07-23T03:45:14;20.63;;;16.35;;
32633;SDS011;19043;51.012;5.648;2022-07-23T03:47:40;15.45;;;13.75;;
32633;SDS011;19043;51.012;5.648;2022-07-23T03:50:06;19.08;;;16.02;;
32633;SDS011;19043;51.012;5.648;2022-07-23T03:52:31;15.43;;;13.13;;
32633;SDS011;19043;51.012;5.648;2022-07-23T03:54:57;17.30;;;14.18;;
32633;SDS011;19043;51.012;5.648;2022-07-23T03:57:22;27.02;;;13.93;;
32633;SDS011;19043;51.012;5.648;2022-07-23T03:59:48;18.23;;;14.13;;
32633;SDS011;19043;51.012;5.648;2022-07-23T04:02:13;14.18;;;12.40;;
32633;SDS011;19043;51.012;5.648;2022-07-23T04:04:39;15.35;;;12.85;;
32633;SDS011;19043;51.012;5.648;2022-07-23T04:07:04;14.27;;;12.20;;
32633;SDS011;19043;51.012;5.648;2022-07-23T04:09:31;12.82;;;10.70;;
32633;SDS011;19043;51.012;5.648;2022-07-23T04:11:56;16.08;;;13.30;;
32633;SDS011;19043;51.012;5.648;2022-07-23T04:14:22;15.05;;;11.93;;
32633;SDS011;19043;51.012;5.648;2022-07-23T04:16:47;14.13;;;12.60;;
32633;SDS011;19043;51.012;5.648;2022-07-23T04:19:13;16.73;;;12.52;;
32633;SDS011;19043;51.012;5.648;2022-07-23T04:21:38;13.82;;;11.85;;
32633;SDS011;19043;51.012;5.648;2022-07-23T04:24:03;17.92;;;14.05;;
32633;SDS011;19043;51.012;5.648;2022-07-23T04:26:29;18.92;;;14.73;;
32633;SDS011;19043;51.012;5.648;2022-07-23T04:28:55;16.92;;;13.63;;
32633;SDS011;19043;51.012;5.648;2022-07-23T04:31:20;18.67;;;13.02;;
32633;SDS011;19043;51.012;5.648;2022-07-23T04:33:46;18.02;;;14.02;;
32633;SDS011;19043;51.012;5.648;2022-07-23T04:36:11;17.40;;;14.27;;
32633;SDS011;19043;51.012;5.648;2022-07-23T04:38:36;15.35;;;13.68;;
32633;SDS011;19043;51.012;5.648;2022-07-23T04:41:02;15.73;;;11.98;;
32633;SDS011;19043;51.012;5.648;2022-07-23T04:43:27;14.77;;;13.27;;
32633;SDS011;19043;51.012;5.648;2022-07-23T04:45:53;15.38;;;13.70;;
32633;SDS011;19043;51.012;5.648;2022-07-23T04:48:18;16.90;;;14.23;;
32633;SDS011;19043;51.012;5.648;2022-07-23T04:50:43;21.13;;;17.75;;
32633;SDS011;19043;51.012;5.648;2022-07-23T04:53:09;22.88;;;17.42;;
32633;SDS011;19043;51.012;5.648;2022-07-23T04:55:34;19.25;;;17.15;;
32633;SDS011;19043;51.012;5.648;2022-07-23T04:57:59;24.85;;;18.95;;
32633;SDS011;19043;51.012;5.648;2022-07-23T05:00:25;22.05;;;17.35;;
32633;SDS011;19043;51.012;5.648;2022-07-23T05:02:50;21.90;;;18.80;;
32633;SDS011;19043;51.012;5.648;2022-07-23T05:05:15;19.90;;;16.58;;
32633;SDS011;19043;51.012;5.648;2022-07-23T05:07:41;19.52;;;16.73;;
32633;SDS011;19043;51.012;5.648;2022-07-23T05:10:06;21.33;;;18.17;;
32633;SDS011;19043;51.012;5.648;2022-07-23T05:12:32;22.33;;;19.95;;
32633;SDS011;19043;51.012;5.648;2022-07-23T05:14:57;18.77;;;16.80;;
32633;SDS011;19043;51.012;5.648;2022-07-23T05:17:23;25.00;;;18.65;;
32633;SDS011;19043;51.012;5.648;2022-07-23T05:19:48;17.83;;;16.13;;
32633;SDS011;19043;51.012;5.648;2022-07-23T05:22:14;18.42;;;16.30;;
32633;SDS011;19043;51.012;5.648;2022-07-23T05:24:39;19.20;;;17.15;;
32633;SDS011;19043;51.012;5.648;2022-07-23T05:27:04;23.23;;;15.63;;
32633;SDS011;19043;51.012;5.648;2022-07-23T05:29:30;22.80;;;19.67;;
32633;SDS011;19043;51.012;5.648;2022-07-23T05:31:55;18.92;;;16.90;;
32633;SDS011;19043;51.012;5.648;2022-07-23T05:34:20;23.15;;;17.17;;
32633;SDS011;19043;51.012;5.648;2022-07-23T05:36:46;21.17;;;17.40;;
32633;SDS011;19043;51.012;5.648;2022-07-23T05:39:11;18.17;;;16.25;;
32633;SDS011;19043;51.012;5.648;2022-07-23T05:41:36;22.13;;;18.48;;
32633;SDS011;19043;51.012;5.648;2022-07-23T05:44:02;20.17;;;15.98;;
32633;SDS011;19043;51.012;5.648;2022-07-23T05:46:27;20.90;;;17.55;;
32633;SDS011;19043;51.012;5.648;2022-07-23T05:48:53;30.08;;;17.90;;
32633;SDS011;19043;51.012;5.648;2022-07-23T05:51:21;23.60;;;16.13;;
32633;SDS011;19043;51.012;5.648;2022-07-23T05:53:48;19.48;;;17.35;;
32633;SDS011;19043;51.012;5.648;2022-07-23T05:56:14;17.02;;;14.43;;
32633;SDS011;19043;51.012;5.648;2022-07-23T05:58:40;18.05;;;16.33;;
32633;SDS011;19043;51.012;5.648;2022-07-23T06:01:05;19.35;;;17.25;;
32633;SDS011;19043;51.012;5.648;2022-07-23T06:03:30;20.73;;;16.60;;
32633;SDS011;19043;51.012;5.648;2022-07-23T06:05:56;25.88;;;15.95;;
32633;SDS011;19043;51.012;5.648;2022-07-23T06:08:21;21.70;;;16.98;;
32633;SDS011;19043;51.012;5.648;2022-07-23T06:10:46;18.67;;;16.65;;
32633;SDS011;19043;51.012;5.648;2022-07-23T06:13:12;17.40;;;15.68;;
32633;SDS011;19043;51.012;5.648;2022-07-23T06:15:37;21.58;;;15.18;;
32633;SDS011;19043;51.012;5.648;2022-07-23T06:18:03;18.88;;;13.98;;
32633;SDS011;19043;51.012;5.648;2022-07-23T06:20:28;21.92;;;16.27;;
32633;SDS011;19043;51.012;5.648;2022-07-23T06:22:53;16.77;;;14.57;;
32633;SDS011;19043;51.012;5.648;2022-07-23T06:25:19;16.38;;;14.68;;
32633;SDS011;19043;51.012;5.648;2022-07-23T06:27:45;20.77;;;16.73;;
32633;SDS011;19043;51.012;5.648;2022-07-23T06:30:11;18.35;;;16.45;;
32633;SDS011;19043;51.012;5.648;2022-07-23T06:32:37;21.02;;;15.85;;
32633;SDS011;19043;51.012;5.648;2022-07-23T06:35:02;17.10;;;13.93;;
32633;SDS011;19043;51.012;5.648;2022-07-23T06:37:28;17.60;;;15.07;;
32633;SDS011;19043;51.012;5.648;2022-07-23T06:39:53;18.45;;;15.48;;
32633;SDS011;19043;51.012;5.648;2022-07-23T06:42:19;21.17;;;15.35;;
32633;SDS011;19043;51.012;5.648;2022-07-23T06:44:44;15.98;;;13.38;;
32633;SDS011;19043;51.012;5.648;2022-07-23T06:47:10;14.80;;;13.27;;
32633;SDS011;19043;51.012;5.648;2022-07-23T06:49:35;18.98;;;16.92;;
32633;SDS011;19043;51.012;5.648;2022-07-23T06:52:01;17.25;;;15.45;;
32633;SDS011;19043;51.012;5.648;2022-07-23T06:54:26;18.02;;;15.02;;
32633;SDS011;19043;51.012;5.648;2022-07-23T06:56:51;20.73;;;15.73;;
32633;SDS011;19043;51.012;5.648;2022-07-23T06:59:17;21.70;;;17.63;;
32633;SDS011;19043;51.012;5.648;2022-07-23T07:01:42;24.73;;;16.48;;
32633;SDS011;19043;51.012;5.648;2022-07-23T07:04:07;20.75;;;17.90;;
32633;SDS011;19043;51.012;5.648;2022-07-23T07:06:33;23.75;;;15.77;;
32633;SDS011;19043;51.012;5.648;2022-07-23T07:08:59;24.92;;;16.65;;
32633;SDS011;19043;51.012;5.648;2022-07-23T07:11:24;17.73;;;15.82;;
32633;SDS011;19043;51.012;5.648;2022-07-23T07:13:50;18.42;;;16.25;;
32633;SDS011;19043;51.012;5.648;2022-07-23T07:16:16;17.48;;;15.73;;
32633;SDS011;19043;51.012;5.648;2022-07-23T07:18:41;19.10;;;16.02;;
32633;SDS011;19043;51.012;5.648;2022-07-23T07:21:07;24.25;;;18.50;;
32633;SDS011;19043;51.012;5.648;2022-07-23T07:23:32;24.02;;;17.75;;
32633;SDS011;19043;51.012;5.648;2022-07-23T07:25:57;16.85;;;15.10;;
32633;SDS011;19043;51.012;5.648;2022-07-23T07:28:23;16.65;;;14.73;;
32633;SDS011;19043;51.012;5.648;2022-07-23T07:30:48;20.33;;;16.15;;
32633;SDS011;19043;51.012;5.648;2022-07-23T07:33:14;21.25;;;14.35;;
32633;SDS011;19043;51.012;5.648;2022-07-23T07:35:39;26.40;;;15.93;;
32633;SDS011;19043;51.012;5.648;2022-07-23T07:38:04;20.52;;;16.83;;
32633;SDS011;19043;51.012;5.648;2022-07-23T07:40:30;16.02;;;12.57;;
32633;SDS011;19043;51.012;5.648;2022-07-23T07:42:55;15.88;;;13.05;;
32633;SDS011;19043;51.012;5.648;2022-07-23T07:45:24;17.60;;;12.07;;
32633;SDS011;19043;51.012;5.648;2022-07-23T07:47:51;14.43;;;11.45;;
32633;SDS011;19043;51.012;5.648;2022-07-23T07:50:17;14.68;;;10.85;;
32633;SDS011;19043;51.012;5.648;2022-07-23T07:52:43;14.38;;;11.05;;
32633;SDS011;19043;51.012;5.648;2022-07-23T07:55:09;11.48;;;9.82;;
32633;SDS011;19043;51.012;5.648;2022-07-23T07:57:35;15.48;;;11.27;;
32633;SDS011;19043;51.012;5.648;2022-07-23T08:00:01;18.13;;;13.25;;
32633;SDS011;19043;51.012;5.648;2022-07-23T08:02:27;18.35;;;11.75;;
32633;SDS011;19043;51.012;5.648;2022-07-23T08:04:52;12.40;;;9.82;;
32633;SDS011;19043;51.012;5.648;2022-07-23T08:07:18;12.57;;;9.10;;
32633;SDS011;19043;51.012;5.648;2022-07-23T08:09:43;11.73;;;10.10;;
32633;SDS011;19043;51.012;5.648;2022-07-23T08:12:09;13.25;;;8.43;;
32633;SDS011;19043;51.012;5.648;2022-07-23T08:14:34;13.68;;;10.90;;
32633;SDS011;19043;51.012;5.648;2022-07-23T08:16:59;15.80;;;7.40;;
32633;SDS011;19043;51.012;5.648;2022-07-23T08:19:25;16.13;;;8.93;;
32633;SDS011;19043;51.012;5.648;2022-07-23T08:21:50;11.98;;;8.05;;
32633;SDS011;19043;51.012;5.648;2022-07-23T08:24:16;10.13;;;7.18;;
32633;SDS011;19043;51.012;5.648;2022-07-23T08:26:41;11.73;;;7.75;;
32633;SDS011;19043;51.012;5.648;2022-07-23T08:29:07;9.80;;;7.93;;
32633;SDS011;19043;51.012;5.648;2022-07-23T08:31:32;11.50;;;7.07;;
32633;SDS011;19043;51.012;5.648;2022-07-23T08:33:58;10.15;;;8.10;;
32633;SDS011;19043;51.012;5.648;2022-07-23T08:36:24;8.52;;;6.95;;
32633;SDS011;19043;51.012;5.648;2022-07-23T08:38:52;10.23;;;6.93;;
32633;SDS011;19043;51.012;5.648;2022-07-23T08:41:18;11.25;;;6.57;;
32633;SDS011;19043;51.012;5.648;2022-07-23T08:43:43;8.70;;;5.95;;
32633;SDS011;19043;51.012;5.648;2022-07-23T08:46:09;8.70;;;6.10;;
32633;SDS011;19043;51.012;5.648;2022-07-23T08:48:35;9.30;;;6.15;;
32633;SDS011;19043;51.012;5.648;2022-07-23T08:51:02;11.55;;;6.50;;
32633;SDS011;19043;51.012;5.648;2022-07-23T08:53:29;9.63;;;6.45;;
32633;SDS011;19043;51.012;5.648;2022-07-23T08:55:56;7.75;;;5.78;;
32633;SDS011;19043;51.012;5.648;2022-07-23T08:58:23;10.82;;;6.63;;
32633;SDS011;19043;51.012;5.648;2022-07-23T09:00:49;12.45;;;6.13;;
32633;SDS011;19043;51.012;5.648;2022-07-23T09:03:19;9.55;;;6.80;;
32633;SDS011;19043;51.012;5.648;2022-07-23T09:05:46;11.10;;;7.03;;
32633;SDS011;19043;51.012;5.648;2022-07-23T09:08:16;7.82;;;5.20;;
32633;SDS011;19043;51.012;5.648;2022-07-23T09:13:28;13.60;;;6.78;;
32633;SDS011;19043;51.012;5.648;2022-07-23T09:16:27;11.80;;;6.40;;
32633;SDS011;19043;51.012;5.648;2022-07-23T09:21:39;8.35;;;5.43;;
32633;SDS011;19043;51.012;5.648;2022-07-23T09:24:05;8.23;;;5.60;;
32633;SDS011;19043;51.012;5.648;2022-07-23T09:26:38;9.73;;;4.40;;
32633;SDS011;19043;51.012;5.648;2022-07-23T09:29:18;8.48;;;5.18;;
32633;SDS011;19043;51.012;5.648;2022-07-23T09:31:57;9.70;;;5.18;;
32633;SDS011;19043;51.012;5.648;2022-07-23T09:39:27;8.75;;;5.55;;
32633;SDS011;19043;51.012;5.648;2022-07-23T09:44:19;6.95;;;4.22;;
32633;SDS011;19043;51.012;5.648;2022-07-23T09:46:46;6.85;;;3.50;;
32633;SDS011;19043;51.012;5.648;2022-07-23T09:49:20;9.50;;;4.25;;
32633;SDS011;19043;51.012;5.648;2022-07-23T09:51:48;6.95;;;4.53;;
32633;SDS011;19043;51.012;5.648;2022-07-23T09:54:21;8.15;;;4.53;;
32633;SDS011;19043;51.012;5.648;2022-07-23T09:56:48;8.68;;;4.00;;
32633;SDS011;19043;51.012;5.648;2022-07-23T09:59:14;6.18;;;4.30;;
32633;SDS011;19043;51.012;5.648;2022-07-23T10:01:42;7.03;;;3.72;;
32633;SDS011;19043;51.012;5.648;2022-07-23T10:04:08;5.80;;;3.80;;
32633;SDS011;19043;51.012;5.648;2022-07-23T10:06:36;5.25;;;2.85;;
32633;SDS011;19043;51.012;5.648;2022-07-23T10:09:05;7.05;;;3.67;;
32633;SDS011;19043;51.012;5.648;2022-07-23T10:11:32;4.78;;;2.80;;
32633;SDS011;19043;51.012;5.648;2022-07-23T10:13:58;4.38;;;2.75;;
32633;SDS011;19043;51.012;5.648;2022-07-23T10:16:25;5.10;;;2.72;;
32633;SDS011;19043;51.012;5.648;2022-07-23T10:18:51;6.03;;;2.10;;
32633;SDS011;19043;51.012;5.648;2022-07-23T10:22:00;8.32;;;2.78;;
32633;SDS011;19043;51.012;5.648;2022-07-23T10:26:58;4.28;;;2.63;;
32633;SDS011;19043;51.012;5.648;2022-07-23T10:29:35;4.45;;;2.75;;
32633;SDS011;19043;51.012;5.648;2022-07-23T10:32:16;5.50;;;3.10;;
32633;SDS011;19043;51.012;5.648;2022-07-23T10:34:55;5.35;;;2.63;;
32633;SDS011;19043;51.012;5.648;2022-07-23T10:37:32;4.25;;;2.03;;
32633;SDS011;19043;51.012;5.648;2022-07-23T10:40:16;4.40;;;1.92;;
32633;SDS011;19043;51.012;5.648;2022-07-23T10:42:47;7.25;;;2.80;;
32633;SDS011;19043;51.012;5.648;2022-07-23T10:47:51;3.80;;;1.83;;
32633;SDS011;19043;51.012;5.648;2022-07-23T10:58:10;1.95;;;0.98;;
32633;SDS011;19043;51.012;5.648;2022-07-23T11:00:36;3.38;;;1.58;;
32633;SDS011;19043;51.012;5.648;2022-07-23T11:03:03;3.70;;;2.10;;
32633;SDS011;19043;51.012;5.648;2022-07-23T11:05:42;5.20;;;2.38;;
32633;SDS011;19043;51.012;5.648;2022-07-23T11:10:43;7.40;;;2.90;;
32633;SDS011;19043;51.012;5.648;2022-07-23T11:16:11;6.32;;;2.17;;
32633;SDS011;19043;51.012;5.648;2022-07-23T11:32:02;4.57;;;1.90;;
32633;SDS011;19043;51.012;5.648;2022-07-23T11:36:58;6.32;;;1.80;;
32633;SDS011;19043;51.012;5.648;2022-07-23T11:39:25;7.18;;;2.42;;
32633;SDS011;19043;51.012;5.648;2022-07-23T11:41:52;2.95;;;1.83;;
32633;SDS011;19043;51.012;5.648;2022-07-23T11:44:29;3.63;;;2.17;;
32633;SDS011;19043;51.012;5.648;2022-07-23T11:46:59;3.42;;;2.13;;
32633;SDS011;19043;51.012;5.648;2022-07-23T11:49:25;5.05;;;1.80;;
32633;SDS011;19043;51.012;5.648;2022-07-23T11:54:35;10.48;;;2.03;;
32633;SDS011;19043;51.012;5.648;2022-07-23T11:57:03;3.08;;;1.60;;
32633;SDS011;19043;51.012;5.648;2022-07-23T11:59:32;7.70;;;2.42;;
32633;SDS011;19043;51.012;5.648;2022-07-23T12:01:58;2.90;;;1.73;;
32633;SDS011;19043;51.012;5.648;2022-07-23T12:04:25;3.88;;;1.80;;
32633;SDS011;19043;51.012;5.648;2022-07-23T12:07:21;4.68;;;2.10;;
32633;SDS011;19043;51.012;5.648;2022-07-23T12:12:36;5.15;;;2.33;;
32633;SDS011;19043;51.012;5.648;2022-07-23T12:15:09;15.52;;;2.20;;
32633;SDS011;19043;51.012;5.648;2022-07-23T12:17:37;11.05;;;2.85;;
32633;SDS011;19043;51.012;5.648;2022-07-23T12:20:04;4.40;;;1.85;;
32633;SDS011;19043;51.012;5.648;2022-07-23T12:22:35;3.28;;;1.67;;
32633;SDS011;19043;51.012;5.648;2022-07-23T12:25:07;6.13;;;1.90;;
32633;SDS011;19043;51.012;5.648;2022-07-23T12:27:36;4.88;;;2.08;;
32633;SDS011;19043;51.012;5.648;2022-07-23T12:30:21;3.95;;;1.80;;
32633;SDS011;19043;51.012;5.648;2022-07-23T12:32:49;3.65;;;1.80;;
32633;SDS011;19043;51.012;5.648;2022-07-23T12:35:15;7.15;;;2.40;;
32633;SDS011;19043;51.012;5.648;2022-07-23T12:37:42;3.92;;;2.03;;
32633;SDS011;19043;51.012;5.648;2022-07-23T12:40:19;4.15;;;1.98;;
32633;SDS011;19043;51.012;5.648;2022-07-23T12:42:45;4.05;;;1.77;;
32633;SDS011;19043;51.012;5.648;2022-07-23T12:45:11;3.85;;;2.13;;
32633;SDS011;19043;51.012;5.648;2022-07-23T12:53:06;4.80;;;1.80;;
32633;SDS011;19043;51.012;5.648;2022-07-23T12:55:36;5.68;;;2.25;;
32633;SDS011;19043;51.012;5.648;2022-07-23T12:58:03;3.60;;;1.77;;
32633;SDS011;19043;51.012;5.648;2022-07-23T13:00:48;3.10;;;1.90;;
32633;SDS011;19043;51.012;5.648;2022-07-23T13:06:00;4.53;;;2.38;;
32633;SDS011;19043;51.012;5.648;2022-07-23T13:08:27;4.05;;;2.22;;
32633;SDS011;19043;51.012;5.648;2022-07-23T13:10:54;2.97;;;1.65;;
32633;SDS011;19043;51.012;5.648;2022-07-23T13:13:20;4.28;;;2.10;;
32633;SDS011;19043;51.012;5.648;2022-07-23T13:15:50;3.10;;;1.60;;
32633;SDS011;19043;51.012;5.648;2022-07-23T13:18:16;5.40;;;2.38;;
32633;SDS011;19043;51.012;5.648;2022-07-23T13:20:42;4.35;;;2.13;;
32633;SDS011;19043;51.012;5.648;2022-07-23T13:23:09;3.70;;;1.90;;
32633;SDS011;19043;51.012;5.648;2022-07-23T13:25:34;5.25;;;2.13;;
32633;SDS011;19043;51.012;5.648;2022-07-23T13:28:00;4.18;;;2.47;;
32633;SDS011;19043;51.012;5.648;2022-07-23T13:30:25;4.45;;;1.88;;
32633;SDS011;19043;51.012;5.648;2022-07-23T13:32:51;3.38;;;1.83;;
32633;SDS011;19043;51.012;5.648;2022-07-23T13:35:16;3.40;;;1.85;;
32633;SDS011;19043;51.012;5.648;2022-07-23T13:37:42;3.60;;;1.70;;
32633;SDS011;19043;51.012;5.648;2022-07-23T13:40:07;4.38;;;2.00;;
32633;SDS011;19043;51.012;5.648;2022-07-23T13:42:33;13.25;;;2.15;;
32633;SDS011;19043;51.012;5.648;2022-07-23T13:44:58;3.63;;;2.03;;
32633;SDS011;19043;51.012;5.648;2022-07-23T13:47:24;12.32;;;2.38;;
32633;SDS011;19043;51.012;5.648;2022-07-23T13:49:50;3.78;;;2.13;;
32633;SDS011;19043;51.012;5.648;2022-07-23T13:52:15;5.75;;;1.92;;
32633;SDS011;19043;51.012;5.648;2022-07-23T13:54:40;9.55;;;2.05;;
32633;SDS011;19043;51.012;5.648;2022-07-23T13:57:06;5.20;;;2.47;;
32633;SDS011;19043;51.012;5.648;2022-07-23T13:59:33;5.00;;;1.88;;
32633;SDS011;19043;51.012;5.648;2022-07-23T14:01:59;5.20;;;2.30;;
32633;SDS011;19043;51.012;5.648;2022-07-23T14:04:25;5.05;;;1.73;;
32633;SDS011;19043;51.012;5.648;2022-07-23T14:06:50;8.05;;;1.88;;
32633;SDS011;19043;51.012;5.648;2022-07-23T14:09:15;6.65;;;2.22;;
32633;SDS011;19043;51.012;5.648;2022-07-23T14:11:41;4.13;;;2.10;;
32633;SDS011;19043;51.012;5.648;2022-07-23T14:14:06;3.40;;;1.90;;
32633;SDS011;19043;51.012;5.648;2022-07-23T14:16:31;5.88;;;1.98;;
32633;SDS011;19043;51.012;5.648;2022-07-23T14:18:57;3.42;;;1.95;;
32633;SDS011;19043;51.012;5.648;2022-07-23T14:21:22;5.00;;;2.35;;
32633;SDS011;19043;51.012;5.648;2022-07-23T14:23:48;4.20;;;2.03;;
32633;SDS011;19043;51.012;5.648;2022-07-23T14:26:13;4.97;;;1.98;;
32633;SDS011;19043;51.012;5.648;2022-07-23T14:28:38;4.53;;;2.30;;
32633;SDS011;19043;51.012;5.648;2022-07-23T14:31:04;3.80;;;1.90;;
32633;SDS011;19043;51.012;5.648;2022-07-23T14:33:29;3.95;;;1.98;;
32633;SDS011;19043;51.012;5.648;2022-07-23T14:35:55;4.55;;;1.98;;
32633;SDS011;19043;51.012;5.648;2022-07-23T14:38:20;4.97;;;1.90;;
32633;SDS011;19043;51.012;5.648;2022-07-23T14:40:45;4.40;;;2.03;;
32633;SDS011;19043;51.012;5.648;2022-07-23T14:43:11;4.05;;;1.95;;
32633;SDS011;19043;51.012;5.648;2022-07-23T14:45:36;4.50;;;2.03;;
32633;SDS011;19043;51.012;5.648;2022-07-23T14:48:02;4.75;;;2.20;;
32633;SDS011;19043;51.012;5.648;2022-07-23T14:50:28;3.20;;;1.77;;
32633;SDS011;19043;51.012;5.648;2022-07-23T14:52:53;3.67;;;1.75;;
32633;SDS011;19043;51.012;5.648;2022-07-23T14:55:19;3.58;;;1.65;;
32633;SDS011;19043;51.012;5.648;2022-07-23T14:57:45;4.15;;;2.33;;
32633;SDS011;19043;51.012;5.648;2022-07-23T15:00:10;5.38;;;2.60;;
32633;SDS011;19043;51.012;5.648;2022-07-23T15:02:36;3.83;;;2.13;;
32633;SDS011;19043;51.012;5.648;2022-07-23T15:05:02;3.38;;;2.00;;
32633;SDS011;19043;51.012;5.648;2022-07-23T15:07:28;4.32;;;1.70;;
32633;SDS011;19043;51.012;5.648;2022-07-23T15:09:55;6.25;;;2.00;;
32633;SDS011;19043;51.012;5.648;2022-07-23T15:12:20;12.20;;;2.03;;
32633;SDS011;19043;51.012;5.648;2022-07-23T15:14:46;3.20;;;2.20;;
32633;SDS011;19043;51.012;5.648;2022-07-23T15:17:11;5.15;;;2.00;;
32633;SDS011;19043;51.012;5.648;2022-07-23T15:19:36;4.60;;;2.25;;
32633;SDS011;19043;51.012;5.648;2022-07-23T15:22:02;4.47;;;2.33;;
32633;SDS011;19043;51.012;5.648;2022-07-23T15:24:29;4.70;;;2.30;;
32633;SDS011;19043;51.012;5.648;2022-07-23T15:26:54;4.05;;;2.03;;
32633;SDS011;19043;51.012;5.648;2022-07-23T15:29:20;4.55;;;2.10;;